Nipawin, Canada
Current Conditions -  °F | °C
As of 10:00 PM on Saturday 25 Oct 2014 (Local Time) from CYBU Reporting Station
Clear Clear  
Wind Chill: 18°   Ceiling: Unl
Heat Index: 27°   Visibility: 9mi
Dew Point: 23°   Wind: 8mph
Humidity: 86%   Direction: 80°E
Pressure: 29.91"   Gusts: NA
Location:  53.37°N, 104.02°W
Report Text: CYBU 260400Z AUTO 08007KT 9SM CLR M03/M05 A2991 RMK SLP148
Loading
Personal Weather Stations






























Interactive Weather Map
Tropical Storm Tracking
New forecast layout! Learn more

10-Day Weather Forecast

Advertisements
Track Severe Weather on mobile